Sister Bay, WI (54234)

7:24 AM CDT on September 21, 2014 (GMT -0500)
2 miles North of town | Change Station
CLOSE
Current Station
Personal Weather Station
Location: Sister Bay, WI
Elevation: 710 ft
Nearby Weather Stations

Elev 710 ft 45.22 °N, 87.11 °W | Updated 6 minutes ago

Overcast
Overcast
53.3 °F
Feels Like 53.3 °F
N
10.0
Wind Variable Wind from North
Gusts 26.0 mph

Today
High -- | Low -- °F
--% Chance of Precip.
Yesterday
High -- | Low -- °F
Precip. -- in
6:34 AM 6:47 PM
Waning Crescent, 7% visible
Pressure 29.72 in
Visibility 10.0 miles
Clouds Mostly Cloudy 1300 ft
Mostly Cloudy 3000 ft
Overcast 5000 ft
Dew Point 52 °F
Humidity 96%
Rainfall -999.00 in
Snow Depth Not available.
UV 0 out of 12
Pollen 2.60 out of 12
Air Quality Not available.
Flu Activity Not available.
METAR KMNM 211215Z AUTO 35009KT 10SM BKN013 BKN030 OVC050 12/10 A2972 RMK AO1

More Conditions Fewer Conditions

Pressure 29.72 in
Visibility 10.0 miles
Clouds Mostly Cloudy 1300 ft
Mostly Cloudy 3000 ft
Overcast 5000 ft
Dew Point 52 °F
Humidity 96%
Rainfall -999.00 in
Snow Depth Not available.
UV 0 out of 12
Pollen 2.60 out of 12
Air Quality Not available.
Flu Activity Not available.
METAR KMNM 211215Z AUTO 35009KT 10SM BKN013 BKN030 OVC050 12/10 A2972 RMK AO1

More Conditions Fewer Conditions

10-Day Weather Forecast

Almanac

Astronomy

Sep. 21, 2014 Rise Set
Actual Time 6:34 AM CDT 6:47 PM CDT
Civil Twilight 6:04 AM CDT 7:17 PM CDT
Nautical Twilight 5:30 AM CDT 7:51 PM CDT
Astronomical Twilight 4:54 AM CDT 8:27 PM CDT
Moon 4:02 AM CDT 5:27 PM CDT
Length of Visible Light 13h 12m
Length of Day
12h 13m
Tomorrow will be 3m 8s shorter.
Waning Crescent, 7% of the Moon is Illuminated
Today
Waning Crescent
Sep 24
New
Oct 1
First Quarter
Oct 8
Full
Oct 15
Last Quarter

Today's Extremes

State Highs State Lows

Community

WunderPhotos

Upload Photos

1,755,126 photos uploaded!

Nearby

Snow Depth

Station Depth Elevation
No new snow has been reported.

Earthquake Activity

City Distance Mag. Time & Date
No recent earthquake activity has been reported nearby.
Minimum magnitude displayed is 2.5.

Coastal Water Temperatures

Place Temperature
Menominee, MI 60.1 °F

Nearby Weather Stations